createdAt,value
2023-05-08T00:01:00.182Z,55.48
2023-05-08T00:03:28.698Z,55.60
2023-05-08T00:05:57.324Z,56.17
2023-05-08T00:08:26.137Z,56.42
2023-05-08T00:10:55.969Z,56.79
2023-05-08T00:13:24.452Z,56.43
2023-05-08T00:15:53.329Z,56.93
2023-05-08T00:18:21.535Z,57.23
2023-05-08T00:20:50.533Z,57.84
2023-05-08T00:23:19.459Z,56.91
2023-05-08T00:25:47.867Z,57.89
2023-05-08T00:28:17.591Z,57.79
2023-05-08T00:30:45.953Z,58.46
2023-05-08T00:33:16.296Z,58.69
2023-05-08T00:35:45.025Z,58.06
2023-05-08T00:38:13.443Z,59.47
2023-05-08T00:40:43.231Z,59.18
2023-05-08T00:43:13.769Z,58.84
2023-05-08T00:45:43.628Z,59.43
2023-05-08T00:48:12.031Z,59.35
2023-05-08T00:50:40.411Z,60.32
2023-05-08T00:53:08.853Z,59.72
2023-05-08T00:55:37.200Z,59.97
2023-05-08T00:58:05.917Z,60.44
2023-05-08T01:00:34.590Z,60.71
2023-05-08T01:03:05.525Z,60.65
2023-05-08T01:05:34.492Z,60.44
2023-05-08T01:08:02.991Z,61.32
2023-05-08T01:10:40.306Z,60.51
2023-05-08T01:13:16.636Z,61.08
2023-05-08T01:15:49.509Z,61.21
2023-05-08T01:18:23.005Z,61.38
2023-05-08T01:20:58.313Z,61.66
2023-05-08T01:23:56.216Z,62.23
2023-05-08T01:26:53.537Z,62.31
2023-05-08T01:29:55.495Z,62.92
2023-05-08T01:32:28.689Z,62.15
2023-05-08T01:35:06.197Z,62.68
2023-05-08T01:37:51.273Z,62.24
2023-05-08T01:40:27.741Z,62.89
2023-05-08T01:43:09.114Z,63.14
2023-05-08T01:45:41.957Z,62.83
2023-05-08T01:48:14.933Z,63.33
2023-05-08T01:50:48.239Z,63.23
2023-05-08T01:53:23.373Z,64.31
2023-05-08T01:55:55.077Z,63.96
2023-05-08T01:58:25.718Z,63.49
2023-05-08T02:00:57.118Z,64.98
2023-05-08T02:03:28.163Z,65.19
2023-05-08T02:06:00.775Z,65.21
2023-05-08T02:08:30.958Z,64.73
2023-05-08T02:11:02.330Z,65.28
2023-05-08T02:13:32.998Z,65.79
2023-05-08T02:16:03.727Z,65.86
2023-05-08T02:18:33.782Z,65.63
2023-05-08T02:21:05.666Z,67.14
2023-05-08T02:23:36.172Z,66.79
2023-05-08T02:26:10.154Z,66.24
2023-05-08T02:28:39.760Z,66.22
2023-05-08T02:31:09.282Z,67.00
2023-05-08T02:33:42.058Z,66.63
2023-05-08T02:36:12.425Z,67.61
2023-05-08T02:38:42.909Z,67.30
2023-05-08T02:41:15.420Z,67.14
2023-05-08T02:43:44.497Z,67.57
2023-05-08T02:46:17.993Z,67.77
2023-05-08T02:48:57.360Z,67.67
2023-05-08T02:51:32.880Z,68.79
2023-05-08T02:54:11.674Z,69.15
2023-05-08T02:56:46.731Z,68.94
2023-05-08T02:59:21.806Z,68.24
2023-05-08T03:01:54.122Z,68.96
2023-05-08T03:04:31.270Z,69.57
2023-05-08T03:07:00.830Z,69.59
2023-05-08T03:09:38.348Z,70.91
2023-05-08T03:12:13.902Z,70.12
2023-05-08T03:14:46.844Z,69.71
2023-05-08T03:17:17.807Z,69.40
2023-05-08T03:19:53.988Z,69.27
2023-05-08T03:22:27.295Z,68.67
2023-05-08T03:24:57.562Z,67.90
2023-05-08T03:27:26.925Z,67.96
2023-05-08T03:29:56.982Z,67.75
2023-05-08T03:32:28.329Z,67.76
2023-05-08T03:35:00.755Z,67.12
2023-05-08T03:37:34.167Z,66.57
2023-05-08T03:40:04.141Z,66.12
2023-05-08T03:42:33.090Z,66.91
2023-05-08T03:45:04.465Z,66.46
2023-05-08T03:47:33.736Z,66.10
2023-05-08T03:50:05.249Z,66.50
2023-05-08T03:52:34.274Z,65.61
2023-05-08T03:55:02.833Z,65.40
2023-05-08T03:57:37.278Z,65.74
2023-05-08T04:00:13.672Z,65.11
2023-05-08T04:02:49.144Z,66.44
2023-05-08T04:05:26.142Z,66.31
2023-05-08T04:07:58.313Z,65.75
2023-05-08T04:10:32.474Z,65.53
2023-05-08T04:13:06.979Z,65.62
2023-05-08T04:15:40.891Z,65.92
2023-05-08T04:18:11.705Z,66.23
2023-05-08T04:20:44.551Z,65.17
2023-05-08T04:23:17.006Z,64.95
2023-05-08T04:25:46.076Z,64.74
2023-05-08T04:28:14.653Z,64.58
2023-05-08T04:30:44.090Z,64.03
2023-05-08T04:33:13.321Z,63.64
2023-05-08T04:35:43.361Z,63.39
2023-05-08T04:38:11.840Z,63.39
2023-05-08T04:40:41.657Z,62.99
2023-05-08T04:43:10.554Z,62.98
2023-05-08T04:45:38.981Z,62.33
2023-05-08T04:48:08.334Z,61.90
2023-05-08T04:50:36.804Z,62.03
2023-05-08T04:53:07.530Z,61.96
2023-05-08T04:55:36.241Z,61.89
2023-05-08T04:58:04.762Z,61.13
2023-05-08T05:00:33.559Z,60.38
2023-05-08T05:03:02.128Z,60.95
2023-05-08T05:05:31.339Z,60.07
2023-05-08T05:08:00.235Z,59.42
2023-05-08T05:10:30.099Z,58.20
2023-05-08T05:12:58.503Z,58.26
2023-05-08T05:15:26.962Z,57.36
2023-05-08T05:17:55.834Z,57.18
2023-05-08T05:20:24.692Z,56.55
2023-05-08T05:22:53.290Z,56.69
2023-05-08T05:25:31.480Z,56.25
2023-05-08T05:28:01.619Z,55.61
2023-05-08T05:30:30.752Z,55.05
2023-05-08T05:32:59.285Z,54.37
2023-05-08T05:35:28.387Z,54.12
2023-05-08T05:37:56.851Z,53.99
2023-05-08T05:40:26.961Z,53.57
2023-05-08T05:42:55.652Z,53.89
2023-05-08T05:45:25.565Z,53.95
2023-05-08T05:47:54.400Z,53.38
2023-05-08T05:50:23.212Z,53.67
2023-05-08T05:52:51.741Z,51.82
2023-05-08T05:55:21.585Z,51.63
2023-05-08T05:57:50.361Z,52.11
2023-05-08T06:00:19.756Z,51.58
2023-05-08T06:02:50.305Z,51.22
2023-05-08T06:05:19.390Z,51.07
2023-05-08T06:07:47.921Z,50.17
2023-05-08T06:10:16.339Z,50.03
2023-05-08T06:12:44.780Z,50.27
2023-05-08T06:15:16.681Z,49.51
2023-05-08T06:17:45.249Z,49.32
2023-05-08T06:20:17.814Z,48.95
2023-05-08T06:22:46.228Z,48.70
2023-05-08T06:25:17.216Z,48.38
2023-05-08T06:27:46.850Z,48.54
2023-05-08T06:30:16.861Z,48.12
2023-05-08T06:32:45.090Z,48.54
2023-05-08T06:35:18.669Z,47.02
2023-05-08T06:37:48.416Z,46.30
2023-05-08T06:40:19.898Z,46.85
2023-05-08T06:42:48.493Z,47.08
2023-05-08T06:45:17.516Z,46.69
2023-05-08T06:47:46.196Z,46.08
2023-05-08T06:50:16.740Z,45.94
2023-05-08T06:52:47.407Z,45.74
2023-05-08T06:55:18.760Z,45.23
2023-05-08T06:57:47.425Z,44.61
2023-05-08T07:00:18.976Z,45.44
2023-05-08T07:02:47.476Z,43.02
2023-05-08T07:05:20.678Z,43.47
2023-05-08T07:07:49.602Z,43.85
2023-05-08T07:10:20.218Z,43.37
2023-05-08T07:12:48.802Z,41.70
2023-05-08T07:15:26.167Z,40.85
2023-05-08T07:17:58.502Z,41.72
2023-05-08T07:20:30.040Z,42.74
2023-05-08T07:22:58.665Z,40.95
2023-05-08T07:25:27.482Z,40.02
2023-05-08T07:27:56.353Z,40.06
2023-05-08T07:30:25.470Z,40.13
2023-05-08T07:32:55.445Z,38.85
2023-05-08T07:35:24.390Z,39.01
2023-05-08T07:37:54.606Z,39.79
2023-05-08T07:40:23.350Z,39.96
2023-05-08T07:42:51.905Z,38.81
2023-05-08T07:45:20.528Z,38.65
2023-05-08T07:47:53.431Z,39.05
2023-05-08T07:50:23.156Z,38.85
2023-05-08T07:52:52.744Z,38.91
2023-05-08T07:55:23.051Z,38.48
2023-05-08T07:57:51.583Z,38.75
2023-05-08T08:00:20.815Z,38.59
2023-05-08T08:02:49.403Z,38.75
2023-05-08T08:05:21.531Z,38.91
2023-05-08T08:07:50.068Z,37.69
2023-05-08T08:10:21.934Z,37.99
2023-05-08T08:12:50.624Z,38.29
2023-05-08T08:15:19.417Z,37.12
2023-05-08T08:17:47.956Z,37.90
2023-05-08T08:20:18.945Z,38.52
2023-05-08T08:22:47.474Z,37.92
2023-05-08T08:25:18.065Z,36.55
2023-05-08T08:27:48.124Z,36.93
2023-05-08T08:30:17.954Z,36.27
2023-05-08T08:33:10.487Z,35.50
2023-05-08T08:35:37.022Z,36.45
2023-05-08T08:38:05.747Z,36.12
2023-05-08T08:40:35.160Z,35.24
2023-05-08T08:43:07.784Z,34.86
2023-05-08T08:45:37.646Z,34.71
2023-05-08T08:48:07.461Z,35.08
2023-05-08T08:50:38.059Z,35.19
2023-05-08T08:53:12.306Z,34.67
2023-05-08T08:55:45.410Z,36.92
2023-05-08T08:58:23.370Z,35.81
2023-05-08T09:00:55.029Z,34.53
2023-05-08T09:03:23.994Z,34.58
2023-05-08T09:05:55.583Z,34.65
2023-05-08T09:08:24.069Z,34.94
2023-05-08T09:10:54.474Z,34.81
2023-05-08T09:13:24.771Z,35.87
2023-05-08T09:15:54.524Z,34.94
2023-05-08T09:18:23.107Z,34.44
2023-05-08T09:20:52.549Z,33.96
2023-05-08T09:23:21.090Z,33.53
2023-05-08T09:25:51.356Z,33.53
2023-05-08T09:28:21.312Z,34.12
2023-05-08T09:30:56.480Z,32.93
2023-05-08T09:33:26.576Z,33.03
2023-05-08T09:36:26.852Z,33.07
2023-05-08T09:38:55.596Z,33.02
2023-05-08T09:41:24.633Z,33.21
2023-05-08T09:44:03.622Z,33.69
2023-05-08T09:46:35.440Z,33.98
2023-05-08T09:49:05.218Z,32.29
2023-05-08T09:51:34.339Z,33.16
2023-05-08T09:54:06.103Z,32.64
2023-05-08T09:56:36.400Z,33.42
2023-05-08T09:59:24.137Z,32.51
2023-05-08T10:01:56.706Z,32.14
2023-05-08T10:04:37.415Z,31.99
2023-05-08T10:07:11.315Z,31.69
2023-05-08T10:09:50.249Z,31.45
2023-05-08T10:12:19.215Z,30.74
2023-05-08T10:14:47.744Z,30.16
2023-05-08T10:18:10.732Z,30.69
2023-05-08T10:28:19.810Z,31.28
2023-05-08T10:30:50.854Z,30.15
2023-05-08T10:33:22.936Z,29.38
2023-05-08T10:35:51.861Z,29.71
2023-05-08T10:38:21.637Z,29.44
2023-05-08T10:40:58.039Z,29.28
2023-05-08T10:43:29.926Z,29.61
2023-05-08T10:45:59.875Z,29.46
2023-05-08T10:48:38.369Z,28.71
2023-05-08T10:51:16.359Z,27.50
2023-05-08T10:53:54.323Z,29.13
2023-05-08T10:56:28.515Z,28.38
2023-05-08T10:59:01.825Z,28.44
2023-05-08T11:01:30.680Z,27.48
2023-05-08T11:03:59.351Z,27.15
2023-05-08T11:06:54.856Z,27.74
2023-05-08T11:09:48.852Z,27.37
2023-05-08T11:12:28.330Z,27.89
2023-05-08T11:15:03.281Z,26.37
2023-05-08T11:17:31.982Z,26.15
2023-05-08T11:20:01.670Z,25.55
2023-05-08T11:22:33.281Z,26.56
2023-05-08T11:25:05.285Z,26.06
2023-05-08T11:28:05.981Z,26.81
2023-05-08T11:30:40.115Z,26.52
2023-05-08T11:33:18.794Z,26.36
2023-05-08T11:35:52.923Z,25.75
2023-05-08T11:38:26.642Z,25.29
2023-05-08T11:41:04.671Z,25.72
2023-05-08T11:44:08.048Z,25.33
2023-05-08T11:46:46.360Z,25.24
2023-05-08T11:49:29.489Z,24.08
2023-05-08T11:52:00.765Z,25.01
2023-05-08T11:54:31.998Z,25.43
2023-05-08T11:57:02.017Z,24.66
2023-05-08T11:59:30.482Z,25.30
2023-05-08T12:02:08.454Z,24.89
2023-05-08T12:04:47.896Z,25.38
2023-05-08T12:07:17.809Z,24.06
2023-05-08T12:09:50.434Z,24.61
2023-05-08T12:12:42.819Z,24.14
2023-05-08T12:15:13.037Z,23.97
2023-05-08T12:17:42.988Z,23.44
2023-05-08T12:20:16.204Z,24.34
2023-05-08T12:22:52.567Z,23.59
2023-05-08T12:25:21.908Z,24.32
2023-05-08T12:27:50.425Z,24.44
2023-05-08T12:30:21.214Z,23.28
2023-05-08T12:32:53.427Z,22.87
2023-05-08T12:35:23.021Z,23.69
2023-05-08T12:37:52.989Z,24.66
2023-05-08T12:40:30.277Z,24.95
2023-05-08T12:43:03.924Z,24.38
2023-05-08T12:45:35.882Z,25.09
2023-05-08T12:48:08.440Z,24.30
2023-05-08T12:50:38.028Z,24.25
2023-05-08T12:53:09.674Z,24.03
2023-05-08T12:55:39.558Z,24.35
2023-05-08T12:58:17.416Z,22.58
2023-05-08T13:00:47.273Z,23.23
2023-05-08T13:03:25.811Z,23.12
2023-05-08T13:05:56.096Z,22.77
2023-05-08T13:08:31.474Z,22.41
2023-05-08T13:10:59.963Z,22.92
2023-05-08T13:13:31.802Z,22.75
2023-05-08T13:16:08.670Z,22.66
2023-05-08T13:18:40.140Z,22.88
2023-05-08T13:21:08.820Z,21.35
2023-05-08T13:23:37.172Z,22.52
2023-05-08T13:26:05.767Z,23.09
2023-05-08T13:28:35.550Z,23.14
2023-05-08T13:31:08.163Z,23.15
2023-05-08T13:33:40.675Z,22.62
2023-05-08T13:36:09.732Z,23.58
2023-05-08T13:38:47.209Z,22.29
2023-05-08T13:41:15.911Z,23.71
2023-05-08T13:43:45.766Z,23.53
2023-05-08T13:46:14.422Z,21.97
2023-05-08T13:48:44.651Z,21.24
2023-05-08T13:51:13.014Z,20.62
2023-05-08T13:53:41.440Z,20.49
2023-05-08T13:56:20.720Z,21.33
2023-05-08T13:58:49.202Z,21.13
2023-05-08T14:01:26.435Z,20.68
2023-05-08T14:03:57.303Z,21.61
2023-05-08T14:06:25.986Z,21.42
2023-05-08T14:08:57.086Z,22.01
2023-05-08T14:11:27.756Z,20.43
2023-05-08T14:13:56.528Z,21.13
2023-05-08T14:16:27.460Z,20.70
2023-05-08T14:18:58.001Z,20.56
2023-05-08T14:21:27.676Z,19.81
2023-05-08T14:23:56.193Z,19.60
2023-05-08T14:26:25.058Z,20.60
2023-05-08T14:28:53.466Z,20.27
2023-05-08T14:31:26.390Z,20.89
2023-05-08T14:33:54.955Z,20.93
2023-05-08T14:36:28.908Z,20.57
2023-05-08T14:38:57.343Z,19.44
2023-05-08T14:41:29.910Z,19.08
2023-05-08T14:43:59.115Z,19.08
2023-05-08T14:46:34.088Z,19.65
2023-05-08T14:49:05.492Z,19.56
2023-05-08T14:51:35.308Z,20.25
2023-05-08T14:54:08.188Z,19.98
2023-05-08T14:56:46.411Z,20.18
2023-05-08T14:59:28.736Z,19.96
2023-05-08T15:01:57.316Z,19.71
2023-05-08T15:04:25.768Z,20.19
2023-05-08T15:06:55.603Z,20.29
2023-05-08T15:09:24.170Z,20.64
2023-05-08T15:11:52.507Z,20.28
2023-05-08T15:14:20.896Z,20.99
2023-05-08T15:16:49.377Z,21.77
2023-05-08T15:19:24.552Z,22.32
2023-05-08T15:21:54.786Z,23.51
2023-05-08T15:24:23.168Z,23.88
2023-05-08T15:26:51.662Z,23.89
2023-05-08T15:29:23.548Z,23.50
2023-05-08T15:31:54.621Z,22.13
2023-05-08T15:34:24.568Z,20.30
2023-05-08T15:36:56.814Z,18.79
2023-05-08T15:39:28.920Z,18.58
2023-05-08T15:41:57.741Z,17.45
2023-05-08T15:44:42.125Z,18.27
2023-05-08T15:47:15.849Z,17.55
2023-05-08T15:49:50.455Z,16.67
2023-05-08T15:52:20.417Z,16.96
2023-05-08T15:54:49.199Z,17.25
2023-05-08T15:57:17.878Z,17.24
2023-05-08T15:59:46.967Z,17.42
2023-05-08T16:02:15.248Z,17.70
2023-05-08T16:04:43.662Z,16.94
2023-05-08T16:07:12.105Z,16.64
2023-05-08T16:09:42.172Z,17.40
2023-05-08T16:12:20.242Z,17.09
2023-05-08T16:14:48.512Z,17.21
2023-05-08T16:17:23.339Z,16.52
2023-05-08T16:19:51.777Z,17.45
2023-05-08T16:22:19.999Z,16.73
2023-05-08T16:24:49.707Z,17.70
2023-05-08T16:27:18.616Z,17.50
2023-05-08T16:29:46.832Z,17.59
2023-05-08T16:32:16.385Z,17.55
2023-05-08T16:34:44.854Z,17.49
2023-05-08T16:37:14.237Z,16.91
2023-05-08T16:39:42.535Z,16.97
2023-05-08T16:42:13.084Z,17.17
2023-05-08T16:44:41.314Z,16.80
2023-05-08T16:47:09.611Z,17.55
2023-05-08T16:49:38.694Z,17.48
2023-05-08T16:52:07.273Z,17.57
2023-05-08T16:54:35.694Z,17.41
2023-05-08T16:57:04.129Z,17.41
2023-05-08T16:59:33.788Z,18.12
2023-05-08T17:02:02.154Z,17.79
2023-05-08T17:04:30.937Z,17.72
2023-05-08T17:07:05.170Z,17.69
2023-05-08T17:09:34.469Z,17.98
2023-05-08T17:12:03.676Z,18.27
2023-05-08T17:14:33.543Z,18.25
2023-05-08T17:17:01.864Z,18.29
2023-05-08T17:19:30.088Z,18.40
2023-05-08T17:21:59.729Z,17.94
2023-05-08T17:24:28.438Z,18.38
2023-05-08T17:26:56.625Z,18.23
2023-05-08T17:29:24.800Z,18.90
2023-05-08T17:31:58.329Z,18.21
2023-05-08T17:34:26.769Z,19.16
2023-05-08T17:36:55.346Z,19.03
2023-05-08T17:39:23.581Z,18.86
2023-05-08T17:41:52.660Z,19.10
2023-05-08T17:44:21.255Z,18.67
2023-05-08T17:46:52.061Z,18.63
2023-05-08T17:49:21.680Z,19.29
2023-05-08T17:51:50.107Z,18.87
2023-05-08T17:54:18.493Z,19.61
2023-05-08T17:56:46.870Z,20.08
2023-05-08T17:59:15.034Z,20.85
2023-05-08T18:01:43.453Z,22.25
2023-05-08T18:04:11.894Z,22.81
2023-05-08T18:06:49.748Z,23.14
2023-05-08T18:09:18.438Z,23.63
2023-05-08T18:11:46.666Z,24.59
2023-05-08T18:14:14.938Z,25.46
2023-05-08T18:16:43.412Z,25.60
2023-05-08T18:19:11.939Z,26.77
2023-05-08T18:21:42.078Z,27.21
2023-05-08T18:24:11.236Z,27.98
2023-05-08T18:26:39.433Z,28.56
2023-05-08T18:29:08.077Z,28.95
2023-05-08T18:31:36.274Z,29.73
2023-05-08T18:34:04.488Z,30.29
2023-05-08T18:36:33.081Z,30.91
2023-05-08T18:39:03.961Z,31.09
2023-05-08T18:41:32.478Z,31.31
2023-05-08T18:44:03.236Z,31.93
2023-05-08T18:46:31.695Z,32.51
2023-05-08T18:49:00.608Z,32.45
2023-05-08T18:51:31.208Z,32.19
2023-05-08T18:54:00.219Z,33.07
2023-05-08T18:56:30.062Z,33.16
2023-05-08T18:59:00.182Z,33.80
2023-05-08T19:01:28.449Z,34.37
2023-05-08T19:03:56.737Z,34.74
2023-05-08T19:06:27.918Z,35.12
2023-05-08T19:08:56.211Z,35.26
2023-05-08T19:11:27.839Z,34.86
2023-05-08T19:13:58.010Z,35.65
2023-05-08T19:16:26.401Z,36.05
2023-05-08T19:18:54.866Z,35.83
2023-05-08T19:21:23.638Z,36.21
2023-05-08T19:23:52.006Z,36.49
2023-05-08T19:26:20.297Z,36.42
2023-05-08T19:28:53.765Z,37.14
2023-05-08T19:31:23.891Z,37.02
2023-05-08T19:33:57.457Z,37.38
2023-05-08T19:36:26.046Z,37.55
2023-05-08T19:38:54.300Z,37.48
2023-05-08T19:41:27.023Z,37.72
2023-05-08T19:43:56.744Z,37.90
2023-05-08T19:46:26.508Z,38.93
2023-05-08T19:48:54.845Z,38.43
2023-05-08T19:51:23.480Z,38.85
2023-05-08T19:53:51.770Z,39.24
2023-05-08T19:56:21.211Z,39.67
2023-05-08T19:58:49.433Z,39.56
2023-05-08T20:01:17.669Z,39.91
2023-05-08T20:03:47.479Z,40.15
2023-05-08T20:06:16.130Z,40.38
2023-05-08T20:08:44.490Z,40.40
2023-05-08T20:11:12.859Z,41.33
2023-05-08T20:13:41.284Z,41.13
2023-05-08T20:16:10.353Z,41.80
2023-05-08T20:18:41.176Z,41.67
2023-05-08T20:21:10.839Z,43.23
2023-05-08T20:23:39.706Z,42.37
2023-05-08T20:26:08.795Z,42.92
2023-05-08T20:28:37.720Z,43.07
2023-05-08T20:31:06.316Z,43.83
2023-05-08T20:33:34.696Z,43.13
2023-05-08T20:36:03.478Z,44.09
2023-05-08T20:38:33.864Z,43.80
2023-05-08T20:41:02.543Z,44.14
2023-05-08T20:43:30.982Z,44.70
2023-05-08T20:46:01.802Z,46.16
2023-05-08T20:48:30.080Z,45.34
2023-05-08T20:50:58.212Z,46.37
2023-05-08T20:53:26.547Z,46.75
2023-05-08T20:56:02.898Z,46.34
2023-05-08T20:58:31.593Z,46.83
2023-05-08T21:01:00.209Z,46.75
2023-05-08T21:03:28.452Z,47.03
2023-05-08T21:05:56.721Z,47.00
2023-05-08T21:08:27.688Z,48.11
2023-05-08T21:10:55.954Z,48.25
2023-05-08T21:13:26.935Z,48.12
2023-05-08T21:15:55.169Z,48.88
2023-05-08T21:18:23.505Z,49.00
2023-05-08T21:20:52.148Z,49.11
2023-05-08T21:23:23.961Z,49.18
2023-05-08T21:25:53.159Z,48.81
2023-05-08T21:28:21.478Z,49.39
2023-05-08T21:30:51.084Z,49.67
2023-05-08T21:33:19.377Z,49.96
2023-05-08T21:35:48.516Z,49.90
2023-05-08T21:38:17.161Z,50.26
2023-05-08T21:40:45.376Z,50.45
2023-05-08T21:43:14.924Z,50.58
2023-05-08T21:45:43.158Z,50.71
2023-05-08T21:48:13.185Z,50.58
2023-05-08T21:50:41.607Z,51.16
2023-05-08T21:53:09.855Z,51.38
2023-05-08T21:55:38.111Z,51.26
2023-05-08T21:58:06.482Z,51.71
2023-05-08T22:00:34.962Z,51.40
2023-05-08T22:03:03.304Z,52.50
2023-05-08T22:05:33.110Z,52.16
2023-05-08T22:08:01.390Z,52.50
2023-05-08T22:10:30.172Z,52.59
2023-05-08T22:12:58.393Z,52.49
2023-05-08T22:15:30.185Z,52.73
2023-05-08T22:17:59.483Z,52.56
2023-05-08T22:20:27.848Z,53.17
2023-05-08T22:22:57.606Z,52.97
2023-05-08T22:25:27.102Z,53.00
2023-05-08T22:27:55.844Z,53.65
2023-05-08T22:30:24.131Z,53.53
2023-05-08T22:32:56.383Z,53.71
2023-05-08T22:35:25.830Z,54.02
2023-05-08T22:37:55.214Z,53.81
2023-05-08T22:40:25.690Z,53.74
2023-05-08T22:42:55.964Z,54.25
2023-05-08T22:45:24.769Z,54.27
2023-05-08T22:47:53.362Z,54.04
2023-05-08T22:50:27.877Z,54.36
2023-05-08T22:52:56.240Z,54.60
2023-05-08T22:55:25.975Z,54.33
2023-05-08T22:57:54.391Z,54.51
2023-05-08T23:00:23.438Z,54.56
2023-05-08T23:02:51.704Z,54.66
2023-05-08T23:05:27.458Z,54.33
2023-05-08T23:07:56.248Z,54.48
2023-05-08T23:10:26.573Z,54.71
2023-05-08T23:12:55.201Z,54.85
2023-05-08T23:15:24.202Z,54.62
2023-05-08T23:17:52.870Z,54.90
2023-05-08T23:20:21.943Z,54.67
2023-05-08T23:22:51.964Z,55.08
2023-05-08T23:25:20.451Z,54.77
2023-05-08T23:27:50.153Z,55.26
2023-05-08T23:30:18.494Z,54.88
2023-05-08T23:32:47.133Z,55.67
2023-05-08T23:35:15.733Z,55.06
2023-05-08T23:37:44.649Z,55.07
2023-05-08T23:40:14.883Z,55.30
2023-05-08T23:42:43.346Z,55.39
2023-05-08T23:45:13.748Z,55.45
2023-05-08T23:47:42.270Z,55.30
2023-05-08T23:50:11.828Z,55.62
2023-05-08T23:52:55.401Z,55.42
2023-05-08T23:55:23.611Z,55.28
2023-05-08T23:57:51.982Z,55.68
